• Join FlightAware (Why Join?)
  • Login
  • US Flag 
09:55AM EST


 

Airport Tracker/Info


-or-


 

Live Flight TrackerFlight Track Log ✈ EJA729 ✈ 25-Jun-2013 ✈ KLAX - KSAN

Flight Track Log - Related Links

Times and Time Zones

All times are in EDT time to prevent confusion due to time zone crossing. See the EJA729 flight status page for this flight to view local times or setup timezone preferences in your user account.

Time Position Orientation Groundspeed Altitude Reporting Facility
EDT Latitude Longitude Course Direction KTS MPH feet Rate Location/Type
10:33AM 33.9240 -118.4720 260° West 2,700  Level FlightAware
10:37AM 33.6180 -118.3790 166° South 353 406 11,000 1,680 Climbing FlightAware
10:38AM 33.5840 -118.3160 123° Southeast 344 396 11,000  Level FlightAware
10:39AM 33.5460 -118.2440 122° Southeast 340 391 11,000  Level FlightAware
10:40AM 33.5090 -118.1760 123° Southeast 338 389 11,000  Level FlightAware
10:41AM 33.4430 -118.0550 123° Southeast 338 389 11,000  Level FlightAware
10:42AM 33.3833 -117.9333 123° Southeast 379 436 11,100 60 Climbing Southern California TRACON
10:43AM 33.3333 -117.8333 121° Southeast 372 428 11,100  Level Southern California TRACON
10:44AM 33.2667 -117.7333 129° Southeast 382 440 11,100  Level Southern California TRACON
10:45AM 33.2000 -117.6500 134° Southeast 383 441 11,100 -360 Level Southern California TRACON
10:46AM 33.1167 -117.5667 140° Southeast 355 409 10,400 -960 Descending Southern California TRACON
10:47AM 33.0500 -117.5000 140° Southeast 304 350 9,200 -1,380 Descending Southern California TRACON
10:48AM 32.9833 -117.4333 140° Southeast 311 358 7,800 -1,020 Descending Southern California TRACON
10:49AM 32.9167 -117.3667 140° Southeast 302 348 7,100 -360 Descending Southern California TRACON
10:50AM 32.8833 -117.2667 112° Southeast 304 350 7,100  Level Southern California TRACON
10:51AM 32.8500 -117.1833 115° Southeast 316 364 7,100 -120 Level Southern California TRACON
10:52AM 32.8167 -117.0833 112° Southeast 303 349 6,900 -900 Descending Southern California TRACON
10:53AM 32.7833 -117.0000 115° Southeast 289 333 5,300 -960 Descending Southern California TRACON
10:54AM 32.7333 -116.9333 132° Southeast 282 325 5,100 -660 Descending Southern California TRACON
10:55AM 32.6833 -116.9500 196° South 219 252 4,100 -960 Descending Southern California TRACON
10:56AM 32.7000 -117.0167 287° West 200 230 3,100 -1,020 Descending Southern California TRACON
10:57AM 32.7000 -117.0667 270° West 166 191 2,000 -960 Descending Southern California TRACON
10:58AM 32.7167 -117.1167 292° West 142 163 1,200 -720 Descending Southern California TRACON
10:58AM 32.7222 -117.1414 285° West 143 165 800 -540 Descending Los Angeles Center
10:59AM 32.7344 -117.1919 286° West 143 165 300 -540 Descending Los Angeles Center